createdAt,value
2017-11-30T00:00:55.753Z,58.95
2017-11-30T00:01:58.203Z,59.01
2017-11-30T00:03:00.675Z,59.06
2017-11-30T00:04:03.143Z,59.04
2017-11-30T00:05:05.600Z,58.96
2017-11-30T00:06:08.060Z,58.96
2017-11-30T00:07:10.538Z,59.00
2017-11-30T00:08:13.014Z,59.11
2017-11-30T00:09:15.473Z,59.27
2017-11-30T00:10:17.950Z,59.31
2017-11-30T00:11:20.403Z,59.37
2017-11-30T00:12:22.868Z,59.44
2017-11-30T00:13:25.354Z,59.56
2017-11-30T00:14:27.817Z,59.59
2017-11-30T00:15:30.283Z,59.76
2017-11-30T00:16:32.763Z,59.70
2017-11-30T00:17:35.225Z,59.61
2017-11-30T00:18:37.691Z,59.65
2017-11-30T00:19:40.170Z,59.70
2017-11-30T00:20:42.620Z,59.67
2017-11-30T00:21:45.085Z,59.65
2017-11-30T00:22:47.565Z,59.61
2017-11-30T00:23:50.041Z,59.64
2017-11-30T00:24:52.510Z,59.74
2017-11-30T00:25:55.003Z,59.71
2017-11-30T00:26:57.478Z,59.69
2017-11-30T00:27:59.946Z,59.63
2017-11-30T00:29:02.422Z,59.74
2017-11-30T00:30:04.916Z,59.80
2017-11-30T00:31:07.372Z,59.84
2017-11-30T00:32:09.824Z,59.79
2017-11-30T00:33:12.299Z,59.82
2017-11-30T00:34:14.757Z,59.92
2017-11-30T00:35:17.216Z,60.01
2017-11-30T00:36:19.668Z,60.01
2017-11-30T00:37:22.134Z,59.96
2017-11-30T00:38:24.588Z,60.02
2017-11-30T00:39:27.063Z,60.01
2017-11-30T00:40:29.533Z,59.99
2017-11-30T00:41:31.987Z,59.81
2017-11-30T00:42:46.391Z,59.74
2017-11-30T00:43:48.863Z,59.90
2017-11-30T00:44:51.342Z,59.99
2017-11-30T00:45:53.935Z,59.98
2017-11-30T00:46:56.404Z,60.10
2017-11-30T00:47:58.894Z,60.09
2017-11-30T00:49:01.452Z,60.08
2017-11-30T00:50:04.023Z,60.13
2017-11-30T00:51:06.485Z,60.17
2017-11-30T00:52:08.941Z,60.16
2017-11-30T00:53:11.397Z,60.23
2017-11-30T00:54:13.860Z,60.30
2017-11-30T00:55:16.319Z,60.27
2017-11-30T00:56:18.791Z,60.22
2017-11-30T00:57:21.244Z,60.30
2017-11-30T00:58:23.697Z,60.36
2017-11-30T00:59:26.152Z,60.36
2017-11-30T01:00:28.622Z,60.30
2017-11-30T01:01:31.090Z,60.38
2017-11-30T01:02:33.557Z,60.40
2017-11-30T01:03:36.013Z,60.35
2017-11-30T01:04:38.476Z,60.28
2017-11-30T01:05:40.928Z,60.37
2017-11-30T01:06:43.402Z,60.48
2017-11-30T01:07:45.860Z,60.54
2017-11-30T01:08:48.337Z,60.53
2017-11-30T01:09:50.815Z,60.51
2017-11-30T01:10:53.295Z,60.56
2017-11-30T01:11:55.765Z,60.66
2017-11-30T01:12:58.224Z,60.71
2017-11-30T01:14:00.680Z,60.82
2017-11-30T01:15:03.135Z,60.85
2017-11-30T01:16:05.594Z,60.90
2017-11-30T01:17:08.081Z,60.89
2017-11-30T01:18:10.565Z,60.95
2017-11-30T01:19:13.046Z,61.02
2017-11-30T01:20:15.504Z,61.02
2017-11-30T01:21:27.790Z,61.03
2017-11-30T01:22:30.284Z,60.99
2017-11-30T01:23:32.741Z,60.96
2017-11-30T01:24:35.201Z,60.98
2017-11-30T01:25:37.656Z,60.99
2017-11-30T01:26:40.111Z,61.01
2017-11-30T01:27:42.635Z,61.03
2017-11-30T01:28:45.093Z,61.04
2017-11-30T01:29:47.569Z,61.04
2017-11-30T01:30:50.029Z,60.88
2017-11-30T01:31:52.484Z,60.83
2017-11-30T01:32:54.975Z,60.85
2017-11-30T01:33:57.447Z,60.87
2017-11-30T01:34:59.939Z,60.82
2017-11-30T01:36:02.415Z,60.79
2017-11-30T01:37:04.872Z,60.76
2017-11-30T01:38:07.357Z,60.76
2017-11-30T01:39:09.830Z,60.72
2017-11-30T01:40:12.288Z,60.73
2017-11-30T01:41:14.756Z,60.86
2017-11-30T01:42:17.223Z,60.98
2017-11-30T01:43:19.708Z,61.00
2017-11-30T01:44:22.184Z,60.90
2017-11-30T01:45:24.659Z,60.88
2017-11-30T01:46:27.125Z,60.80
2017-11-30T01:47:29.599Z,60.82
2017-11-30T01:48:32.103Z,60.83
2017-11-30T01:49:34.579Z,60.86
2017-11-30T01:50:37.032Z,60.96
2017-11-30T01:51:39.493Z,61.06
2017-11-30T01:52:41.971Z,61.09
2017-11-30T01:53:44.467Z,61.15
2017-11-30T01:54:46.942Z,61.06
2017-11-30T01:55:49.413Z,61.09
2017-11-30T01:56:51.891Z,61.20
2017-11-30T01:57:54.362Z,61.16
2017-11-30T01:58:56.859Z,61.17
2017-11-30T01:59:59.312Z,61.14
2017-11-30T02:01:01.777Z,61.12
2017-11-30T02:02:04.236Z,61.16
2017-11-30T02:03:06.688Z,61.15
2017-11-30T02:04:09.169Z,61.04
2017-11-30T02:05:11.632Z,61.05
2017-11-30T02:06:14.109Z,61.19
2017-11-30T02:07:16.572Z,61.32
2017-11-30T02:08:19.042Z,61.27
2017-11-30T02:09:21.534Z,61.32
2017-11-30T02:10:24.006Z,61.25
2017-11-30T02:11:26.463Z,61.09
2017-11-30T02:12:28.923Z,61.06
2017-11-30T02:13:31.403Z,61.08
2017-11-30T02:14:33.901Z,61.08
2017-11-30T02:15:36.379Z,61.11
2017-11-30T02:16:38.853Z,61.14
2017-11-30T02:17:41.330Z,61.21
2017-11-30T02:18:43.815Z,61.33
2017-11-30T02:19:46.300Z,61.60
2017-11-30T02:20:48.781Z,61.81
2017-11-30T02:21:51.255Z,61.93
2017-11-30T02:22:53.732Z,61.95
2017-11-30T02:23:56.215Z,61.87
2017-11-30T02:24:58.698Z,61.76
2017-11-30T02:26:01.160Z,61.70
2017-11-30T02:27:03.628Z,61.58
2017-11-30T02:28:06.107Z,61.69
2017-11-30T02:29:08.585Z,61.81
2017-11-30T02:30:11.075Z,61.85
2017-11-30T02:31:13.547Z,61.73
2017-11-30T02:32:16.030Z,61.76
2017-11-30T02:33:18.511Z,61.79
2017-11-30T02:34:20.990Z,62.34
2017-11-30T02:35:23.499Z,62.21
2017-11-30T02:36:25.960Z,61.89
2017-11-30T02:37:28.434Z,60.67
2017-11-30T02:38:30.905Z,59.75
2017-11-30T02:39:33.383Z,58.96
2017-11-30T02:40:35.868Z,58.26
2017-11-30T02:41:38.329Z,58.05
2017-11-30T02:42:40.810Z,58.02
2017-11-30T02:43:43.283Z,57.99
2017-11-30T02:44:45.741Z,58.08
2017-11-30T02:45:48.256Z,58.29
2017-11-30T02:46:50.729Z,58.35
2017-11-30T02:47:53.196Z,58.67
2017-11-30T02:48:55.684Z,58.72
2017-11-30T02:49:58.144Z,58.75
2017-11-30T02:51:00.655Z,58.88
2017-11-30T02:52:03.116Z,59.08
2017-11-30T02:53:05.583Z,59.27
2017-11-30T02:54:08.053Z,59.39
2017-11-30T02:55:10.535Z,59.52
2017-11-30T02:56:13.027Z,59.65
2017-11-30T02:57:15.492Z,59.81
2017-11-30T02:58:17.956Z,60.00
2017-11-30T02:59:20.433Z,60.07
2017-11-30T03:00:22.920Z,60.05
2017-11-30T03:01:25.422Z,60.13
2017-11-30T03:02:27.889Z,60.25
2017-11-30T03:03:30.366Z,60.22
2017-11-30T03:04:32.834Z,60.33
2017-11-30T03:05:35.305Z,60.44
2017-11-30T03:06:37.780Z,60.56
2017-11-30T03:07:40.259Z,60.64
2017-11-30T03:08:42.739Z,60.56
2017-11-30T03:09:45.200Z,60.52
2017-11-30T03:10:47.677Z,60.43
2017-11-30T03:11:50.166Z,60.52
2017-11-30T03:12:52.641Z,60.59
2017-11-30T03:13:55.104Z,60.70
2017-11-30T03:14:57.558Z,60.72
2017-11-30T03:16:00.078Z,60.80
2017-11-30T03:17:02.566Z,60.89
2017-11-30T03:18:05.016Z,60.78
2017-11-30T03:19:07.468Z,60.74
2017-11-30T03:20:09.951Z,60.79
2017-11-30T03:21:12.426Z,60.93
2017-11-30T03:22:14.926Z,61.12
2017-11-30T03:23:17.400Z,61.19
2017-11-30T03:24:19.866Z,61.31
2017-11-30T03:25:22.345Z,61.51
2017-11-30T03:26:25.143Z,61.72
2017-11-30T03:27:27.619Z,61.70
2017-11-30T03:28:30.095Z,61.61
2017-11-30T03:29:32.560Z,61.53
2017-11-30T03:30:35.026Z,61.52
2017-11-30T03:31:37.519Z,61.50
2017-11-30T03:32:40.019Z,61.56
2017-11-30T03:33:42.498Z,61.70
2017-11-30T03:34:44.955Z,61.75
2017-11-30T03:35:47.424Z,61.69
2017-11-30T03:36:49.906Z,62.02
2017-11-30T03:37:52.444Z,61.98
2017-11-30T03:38:54.922Z,62.05
2017-11-30T03:39:57.414Z,62.15
2017-11-30T03:40:59.892Z,62.11
2017-11-30T03:42:02.376Z,62.09
2017-11-30T03:43:04.924Z,62.06
2017-11-30T03:44:07.447Z,62.01
2017-11-30T03:45:09.945Z,62.09
2017-11-30T03:46:12.434Z,62.04
2017-11-30T03:47:14.922Z,62.06
2017-11-30T03:48:17.459Z,62.24
2017-11-30T03:49:19.970Z,62.08
2017-11-30T03:50:22.475Z,62.07
2017-11-30T03:51:24.974Z,62.26
2017-11-30T03:52:27.498Z,62.31
2017-11-30T03:53:29.969Z,62.16
2017-11-30T03:54:32.439Z,62.22
2017-11-30T03:55:34.916Z,62.22
2017-11-30T03:56:37.405Z,62.22
2017-11-30T03:57:39.886Z,62.22
2017-11-30T03:58:42.362Z,62.28
2017-11-30T03:59:44.835Z,62.36
2017-11-30T04:00:47.305Z,62.48
2017-11-30T04:01:49.769Z,62.42
2017-11-30T04:02:52.255Z,62.40
2017-11-30T04:03:54.754Z,62.25
2017-11-30T04:04:57.243Z,62.13
2017-11-30T04:05:59.726Z,62.27
2017-11-30T04:07:02.199Z,62.24
2017-11-30T04:08:04.671Z,62.06
2017-11-30T04:09:07.149Z,62.23
2017-11-30T04:10:09.616Z,62.32
2017-11-30T04:11:12.080Z,62.31
2017-11-30T04:12:14.541Z,62.31
2017-11-30T04:13:17.010Z,62.38
2017-11-30T04:14:19.488Z,62.52
2017-11-30T04:15:21.962Z,62.57
2017-11-30T04:16:24.423Z,62.51
2017-11-30T04:17:26.906Z,62.71
2017-11-30T04:18:29.375Z,62.77
2017-11-30T04:19:31.864Z,62.74
2017-11-30T04:20:34.336Z,62.75
2017-11-30T04:21:36.805Z,62.89
2017-11-30T04:22:39.260Z,63.03
2017-11-30T04:23:41.731Z,62.93
2017-11-30T04:24:44.209Z,62.88
2017-11-30T04:25:46.689Z,63.02
2017-11-30T04:26:49.161Z,63.21
2017-11-30T04:27:51.620Z,63.21
2017-11-30T04:28:54.084Z,63.17
2017-11-30T04:29:56.692Z,63.22
2017-11-30T04:30:59.177Z,63.45
2017-11-30T04:32:01.649Z,63.40
2017-11-30T04:33:04.112Z,63.35
2017-11-30T04:34:06.581Z,63.22
2017-11-30T04:35:09.090Z,63.09
2017-11-30T04:36:11.566Z,63.01
2017-11-30T04:37:14.042Z,62.89
2017-11-30T04:38:16.512Z,62.88
2017-11-30T04:39:18.987Z,62.86
2017-11-30T04:40:21.471Z,62.91
2017-11-30T04:41:23.945Z,62.94
2017-11-30T04:42:26.434Z,62.90
2017-11-30T04:43:28.908Z,62.90
2017-11-30T04:44:31.391Z,62.89
2017-11-30T04:45:33.873Z,62.88
2017-11-30T04:46:36.343Z,62.68
2017-11-30T04:47:38.819Z,62.71
2017-11-30T04:48:41.297Z,62.87
2017-11-30T04:49:43.767Z,62.79
2017-11-30T04:50:46.251Z,62.79
2017-11-30T04:51:48.729Z,63.10
2017-11-30T04:52:51.191Z,63.19
2017-11-30T04:53:53.653Z,63.17
2017-11-30T04:54:56.124Z,63.19
2017-11-30T04:55:58.599Z,63.22
2017-11-30T04:57:01.131Z,63.22
2017-11-30T04:58:03.610Z,63.22
2017-11-30T04:59:06.078Z,63.28
2017-11-30T05:00:08.546Z,63.38
2017-11-30T05:01:11.043Z,63.45
2017-11-30T05:02:13.527Z,63.48
2017-11-30T05:03:15.996Z,63.51
2017-11-30T05:04:18.465Z,63.48
2017-11-30T05:05:20.936Z,63.40
2017-11-30T05:06:23.437Z,63.30
2017-11-30T05:07:25.947Z,63.29
2017-11-30T05:08:28.403Z,63.38
2017-11-30T05:09:30.883Z,63.23
2017-11-30T05:10:33.344Z,63.29
2017-11-30T05:11:35.838Z,63.41
2017-11-30T05:12:38.315Z,63.54
2017-11-30T05:13:40.800Z,63.73
2017-11-30T05:14:43.295Z,64.00
2017-11-30T05:15:45.779Z,64.11
2017-11-30T05:16:48.261Z,64.04
2017-11-30T05:17:50.734Z,64.04
2017-11-30T05:18:53.207Z,64.00
2017-11-30T05:19:55.680Z,63.91
2017-11-30T05:20:58.138Z,64.01
2017-11-30T05:22:00.632Z,64.00
2017-11-30T05:23:03.107Z,63.92
2017-11-30T05:24:05.565Z,63.71
2017-11-30T05:25:08.029Z,63.81
2017-11-30T05:26:10.492Z,63.79
2017-11-30T05:27:13.003Z,63.75
2017-11-30T05:28:15.481Z,63.90
2017-11-30T05:29:17.954Z,63.72
2017-11-30T05:30:20.413Z,63.57
2017-11-30T05:31:22.881Z,63.53
2017-11-30T05:32:25.382Z,63.74
2017-11-30T05:33:27.851Z,63.82
2017-11-30T05:34:30.309Z,63.62
2017-11-30T05:35:32.819Z,63.47
2017-11-30T05:36:35.290Z,63.47
2017-11-30T05:37:37.770Z,63.55
2017-11-30T05:38:40.242Z,63.60
2017-11-30T05:39:42.730Z,63.76
2017-11-30T05:40:45.199Z,63.79
2017-11-30T05:41:47.660Z,63.92
2017-11-30T05:42:50.140Z,63.97
2017-11-30T05:43:52.605Z,64.01
2017-11-30T05:44:55.080Z,63.84
2017-11-30T05:45:57.542Z,63.78
2017-11-30T05:47:00.049Z,63.78
2017-11-30T05:48:02.548Z,63.79
2017-11-30T05:49:05.020Z,63.88
2017-11-30T05:50:07.485Z,63.82
2017-11-30T05:51:09.948Z,63.82
2017-11-30T05:52:12.428Z,63.85
2017-11-30T05:53:14.913Z,63.97
2017-11-30T05:54:17.386Z,63.98
2017-11-30T05:55:19.844Z,63.89
2017-11-30T05:56:22.318Z,63.76
2017-11-30T05:57:24.801Z,63.67
2017-11-30T05:58:27.285Z,63.68
2017-11-30T05:59:29.758Z,63.93
2017-11-30T06:00:32.237Z,64.18
2017-11-30T06:01:34.701Z,64.06
2017-11-30T06:02:37.161Z,64.06
2017-11-30T06:03:39.711Z,64.16
2017-11-30T06:04:42.174Z,64.22
2017-11-30T06:05:44.649Z,64.00
2017-11-30T06:06:47.138Z,63.86
2017-11-30T06:07:49.714Z,63.74
2017-11-30T06:08:52.203Z,63.54
2017-11-30T06:09:54.693Z,63.46
2017-11-30T06:10:57.156Z,63.52
2017-11-30T06:11:59.638Z,63.75
2017-11-30T06:13:02.127Z,63.89
2017-11-30T06:14:04.601Z,64.29
2017-11-30T06:15:07.099Z,64.20
2017-11-30T06:16:09.636Z,64.39
2017-11-30T06:17:12.243Z,64.50
2017-11-30T06:18:14.715Z,64.39
2017-11-30T06:19:17.177Z,64.41
2017-11-30T06:20:19.645Z,64.17
2017-11-30T06:21:22.121Z,64.02
2017-11-30T06:22:24.653Z,63.84
2017-11-30T06:23:27.151Z,63.84
2017-11-30T06:24:29.645Z,63.89
2017-11-30T06:25:32.095Z,64.27
2017-11-30T06:26:34.548Z,64.50
2017-11-30T06:27:37.004Z,64.41
2017-11-30T06:28:39.463Z,64.22
2017-11-30T06:29:41.953Z,64.35
2017-11-30T06:30:44.436Z,64.27
2017-11-30T06:31:46.899Z,64.09
2017-11-30T06:32:49.357Z,64.01
2017-11-30T06:33:51.834Z,64.15
2017-11-30T06:34:54.316Z,64.18
2017-11-30T06:35:56.772Z,64.25
2017-11-30T06:36:59.236Z,64.21
2017-11-30T06:38:01.719Z,64.15
2017-11-30T06:39:04.193Z,64.12
2017-11-30T06:40:06.696Z,64.16
2017-11-30T06:41:09.160Z,64.16
2017-11-30T06:42:11.636Z,64.08
2017-11-30T06:43:14.100Z,64.12
2017-11-30T06:44:16.556Z,64.12
2017-11-30T06:45:19.055Z,64.01
2017-11-30T06:46:21.552Z,63.90
2017-11-30T06:47:24.016Z,63.89
2017-11-30T06:48:26.474Z,63.98
2017-11-30T06:49:28.957Z,64.17
2017-11-30T06:50:31.442Z,64.19
2017-11-30T06:51:33.906Z,64.21
2017-11-30T06:52:36.398Z,64.22
2017-11-30T06:53:38.878Z,64.33
2017-11-30T06:54:41.328Z,64.40
2017-11-30T06:55:43.822Z,64.41
2017-11-30T06:56:46.295Z,64.25
2017-11-30T06:57:48.779Z,64.22
2017-11-30T06:58:51.249Z,64.27
2017-11-30T06:59:53.741Z,64.31
2017-11-30T07:00:56.239Z,64.33
2017-11-30T07:01:58.722Z,64.33
2017-11-30T07:03:01.191Z,64.46
2017-11-30T07:04:03.706Z,64.61
2017-11-30T07:05:06.194Z,64.78
2017-11-30T07:06:08.706Z,64.79
2017-11-30T07:07:11.164Z,65.04
2017-11-30T07:08:13.635Z,65.37
2017-11-30T07:09:16.117Z,65.34
2017-11-30T07:10:18.602Z,65.23
2017-11-30T07:11:21.092Z,65.27
2017-11-30T07:12:23.576Z,65.35
2017-11-30T07:13:26.065Z,65.43
2017-11-30T07:14:28.539Z,65.26
2017-11-30T07:15:31.018Z,65.10
2017-11-30T07:16:33.507Z,65.07
2017-11-30T07:17:35.964Z,65.29
2017-11-30T07:18:38.420Z,65.10
2017-11-30T07:19:40.907Z,64.88
2017-11-30T07:20:43.392Z,64.75
2017-11-30T07:21:45.892Z,64.77
2017-11-30T07:22:48.347Z,65.05
2017-11-30T07:23:50.827Z,65.19
2017-11-30T07:24:53.310Z,65.23
2017-11-30T07:25:55.792Z,65.37
2017-11-30T07:26:58.276Z,65.42
2017-11-30T07:28:00.773Z,65.17
2017-11-30T07:29:03.230Z,64.86
2017-11-30T07:30:05.688Z,65.02
2017-11-30T07:31:08.159Z,65.17
2017-11-30T07:32:10.640Z,65.45
2017-11-30T07:33:13.099Z,65.27
2017-11-30T07:34:15.581Z,65.14
2017-11-30T07:35:18.052Z,65.04
2017-11-30T07:36:20.539Z,65.45
2017-11-30T07:37:23.047Z,63.45
2017-11-30T07:38:25.520Z,62.54
2017-11-30T07:39:27.989Z,62.08
2017-11-30T07:40:30.466Z,61.69
2017-11-30T07:41:32.959Z,61.59
2017-11-30T07:42:35.457Z,60.95
2017-11-30T07:43:37.932Z,60.21
2017-11-30T07:44:40.395Z,58.00
2017-11-30T07:45:42.884Z,58.43
2017-11-30T07:46:45.357Z,58.39
2017-11-30T07:47:47.858Z,57.34
2017-11-30T07:48:50.320Z,57.43
2017-11-30T07:49:52.802Z,57.68
2017-11-30T07:50:55.277Z,57.78
2017-11-30T07:51:57.759Z,57.49
2017-11-30T07:53:00.267Z,57.12
2017-11-30T07:54:02.751Z,57.02
2017-11-30T07:55:05.246Z,57.20
2017-11-30T07:56:07.726Z,57.16
2017-11-30T07:57:10.206Z,57.02
2017-11-30T07:58:12.706Z,57.00
2017-11-30T07:59:15.182Z,56.79
2017-11-30T08:00:17.661Z,55.72
2017-11-30T08:01:20.123Z,53.90
2017-11-30T08:02:22.599Z,54.14
2017-11-30T08:03:25.155Z,54.49
2017-11-30T08:04:27.643Z,54.69
2017-11-30T08:05:30.117Z,54.82
2017-11-30T08:06:32.605Z,54.65
2017-11-30T08:07:35.087Z,54.22
2017-11-30T08:08:37.593Z,54.08
2017-11-30T08:09:40.085Z,54.14
2017-11-30T08:10:42.581Z,54.38
2017-11-30T08:11:45.075Z,54.49
2017-11-30T08:12:47.583Z,54.53
2017-11-30T08:13:50.103Z,54.11
2017-11-30T08:14:52.634Z,53.14
2017-11-30T08:15:55.131Z,52.81
2017-11-30T08:16:57.703Z,51.76
2017-11-30T08:18:00.184Z,51.69
2017-11-30T08:19:02.696Z,51.28
2017-11-30T08:20:05.353Z,51.31
2017-11-30T08:21:07.815Z,51.48
2017-11-30T08:22:10.283Z,51.58
2017-11-30T08:23:12.756Z,51.49
2017-11-30T08:24:15.251Z,51.80
2017-11-30T08:25:17.972Z,51.81
2017-11-30T08:26:20.449Z,52.02
2017-11-30T08:27:22.930Z,52.17
2017-11-30T08:28:25.403Z,52.24
2017-11-30T08:29:27.919Z,52.17
2017-11-30T08:30:30.400Z,52.12
2017-11-30T08:31:32.898Z,52.03
2017-11-30T08:32:35.383Z,51.59
2017-11-30T08:33:37.856Z,50.49
2017-11-30T08:34:40.364Z,49.71
2017-11-30T08:35:42.854Z,49.84
2017-11-30T08:36:45.341Z,49.60
2017-11-30T08:37:47.814Z,49.77
2017-11-30T08:38:50.302Z,49.92
2017-11-30T08:39:52.815Z,50.02
2017-11-30T08:40:55.330Z,49.92
2017-11-30T08:41:57.809Z,48.95
2017-11-30T08:43:00.299Z,49.50
2017-11-30T08:44:02.782Z,49.66
2017-11-30T08:45:05.296Z,49.65
2017-11-30T08:46:07.779Z,49.64
2017-11-30T08:47:10.272Z,49.51
2017-11-30T08:48:12.778Z,49.69
2017-11-30T08:49:15.277Z,49.75
2017-11-30T08:50:17.790Z,49.75
2017-11-30T08:51:20.275Z,49.87
2017-11-30T08:52:22.755Z,50.04
2017-11-30T08:53:25.227Z,50.09
2017-11-30T08:54:27.703Z,50.19
2017-11-30T08:55:30.208Z,50.12
2017-11-30T08:56:32.698Z,50.21
2017-11-30T08:57:35.185Z,50.14
2017-11-30T08:58:37.678Z,50.16
2017-11-30T08:59:40.168Z,50.40
2017-11-30T09:00:42.683Z,50.69
2017-11-30T09:01:45.156Z,50.88
2017-11-30T09:02:47.650Z,50.86
2017-11-30T09:03:50.127Z,50.82
2017-11-30T09:04:52.652Z,50.67
2017-11-30T09:05:55.150Z,50.56
2017-11-30T09:06:57.649Z,50.31
2017-11-30T09:08:00.160Z,50.20
2017-11-30T09:09:02.639Z,50.57
2017-11-30T09:10:05.125Z,51.22
2017-11-30T09:11:07.601Z,51.44
2017-11-30T09:12:10.085Z,51.33
2017-11-30T09:13:12.582Z,50.98
2017-11-30T09:14:15.078Z,50.70
2017-11-30T09:15:17.576Z,50.35
2017-11-30T09:16:20.061Z,50.52
2017-11-30T09:17:22.567Z,50.40
2017-11-30T09:18:25.055Z,50.29
2017-11-30T09:19:27.551Z,50.18
2017-11-30T09:20:30.048Z,50.11
2017-11-30T09:21:32.526Z,50.26
2017-11-30T09:22:35.012Z,49.84
2017-11-30T09:23:37.548Z,49.73
2017-11-30T09:24:40.042Z,49.65
2017-11-30T09:25:42.538Z,49.59
2017-11-30T09:26:45.050Z,49.67
2017-11-30T09:27:47.534Z,49.79
2017-11-30T09:28:50.008Z,49.74
2017-11-30T09:29:52.547Z,49.89
2017-11-30T09:30:55.034Z,49.96
2017-11-30T09:31:57.550Z,50.07
2017-11-30T09:33:00.024Z,50.37
2017-11-30T09:34:02.513Z,50.86
2017-11-30T09:35:05.016Z,50.94
2017-11-30T09:36:07.504Z,51.17
2017-11-30T09:37:10.002Z,51.31
2017-11-30T09:38:12.484Z,51.46
2017-11-30T09:39:15.001Z,51.59
2017-11-30T09:40:17.478Z,51.83
2017-11-30T09:41:19.954Z,52.24
2017-11-30T09:42:22.429Z,52.52
2017-11-30T09:43:24.907Z,52.77
2017-11-30T09:44:27.430Z,52.99
2017-11-30T09:45:29.979Z,53.14
2017-11-30T09:46:32.450Z,53.31
2017-11-30T09:47:34.956Z,53.40
2017-11-30T09:48:37.454Z,53.53
2017-11-30T09:49:39.953Z,53.70
2017-11-30T09:50:42.436Z,53.84
2017-11-30T09:51:45.711Z,54.06
2017-11-30T09:52:48.266Z,54.18
2017-11-30T09:53:50.762Z,54.21
2017-11-30T09:54:53.258Z,54.24
2017-11-30T09:55:55.735Z,54.27
2017-11-30T09:56:58.221Z,54.31
2017-11-30T09:58:00.816Z,54.35
2017-11-30T09:59:03.372Z,54.40
2017-11-30T10:00:05.861Z,54.26
2017-11-30T10:01:08.420Z,54.06
2017-11-30T10:02:10.904Z,54.01
2017-11-30T10:03:13.372Z,53.93
2017-11-30T10:04:15.914Z,53.92
2017-11-30T10:05:18.384Z,54.11
2017-11-30T10:06:20.856Z,54.29
2017-11-30T10:07:23.397Z,54.25
2017-11-30T10:08:25.878Z,54.17
2017-11-30T10:09:28.348Z,54.18
2017-11-30T10:10:30.820Z,54.32
2017-11-30T10:11:33.310Z,54.47
2017-11-30T10:12:35.810Z,54.58
2017-11-30T10:13:38.310Z,54.70
2017-11-30T10:14:40.801Z,54.88
2017-11-30T10:15:43.291Z,55.05
2017-11-30T10:16:45.781Z,55.19
2017-11-30T10:17:48.276Z,55.29
2017-11-30T10:18:50.753Z,55.37
2017-11-30T10:19:53.262Z,55.48
2017-11-30T10:20:55.738Z,55.71
2017-11-30T10:21:58.248Z,55.87
2017-11-30T10:23:00.767Z,55.96
2017-11-30T10:24:03.478Z,56.01
2017-11-30T10:25:05.965Z,55.97
2017-11-30T10:26:08.458Z,56.00
2017-11-30T10:27:10.947Z,56.12
2017-11-30T10:28:13.416Z,56.23
2017-11-30T10:29:16.103Z,56.24
2017-11-30T10:30:18.595Z,56.33
2017-11-30T10:31:21.104Z,56.38
2017-11-30T10:32:23.620Z,56.42
2017-11-30T10:33:26.061Z,56.44
2017-11-30T10:34:28.532Z,56.55
2017-11-30T10:35:30.997Z,56.60
2017-11-30T10:36:33.489Z,56.66
2017-11-30T10:37:35.978Z,56.70
2017-11-30T10:38:38.435Z,56.75
2017-11-30T10:39:40.924Z,56.78
2017-11-30T10:40:43.472Z,56.83
2017-11-30T10:41:45.957Z,56.90
2017-11-30T10:42:48.441Z,56.92
2017-11-30T10:43:50.943Z,56.97
2017-11-30T10:44:53.432Z,57.04
2017-11-30T10:45:55.895Z,57.09
2017-11-30T10:46:58.363Z,57.12
2017-11-30T10:48:00.844Z,57.17
2017-11-30T10:49:03.334Z,57.22
2017-11-30T10:50:05.824Z,57.28
2017-11-30T10:51:08.299Z,57.31
2017-11-30T10:52:10.770Z,57.37
2017-11-30T10:53:13.244Z,57.39
2017-11-30T10:54:15.766Z,57.41
2017-11-30T10:55:18.228Z,57.45
2017-11-30T10:56:20.709Z,57.50
2017-11-30T10:57:23.179Z,57.49
2017-11-30T10:58:25.653Z,57.55
2017-11-30T10:59:28.136Z,57.59
2017-11-30T11:00:30.615Z,57.62
2017-11-30T11:01:33.094Z,57.67
2017-11-30T11:02:35.560Z,57.72
2017-11-30T11:03:38.029Z,57.72
2017-11-30T11:04:40.501Z,57.75
2017-11-30T11:05:43.010Z,57.77
2017-11-30T11:06:45.499Z,57.81
2017-11-30T11:07:48.002Z,57.83
2017-11-30T11:08:50.484Z,57.85
2017-11-30T11:09:53.001Z,57.88
2017-11-30T11:10:55.491Z,57.91
2017-11-30T11:11:57.983Z,57.93
2017-11-30T11:13:00.463Z,57.96
2017-11-30T11:14:02.943Z,57.99
2017-11-30T11:15:05.426Z,58.03
2017-11-30T11:16:07.930Z,58.01
2017-11-30T11:17:10.414Z,57.95
2017-11-30T11:18:12.897Z,57.63
2017-11-30T11:19:15.378Z,57.41
2017-11-30T11:20:17.859Z,57.31
2017-11-30T11:21:20.348Z,56.84
2017-11-30T11:22:22.836Z,56.36
2017-11-30T11:23:26.238Z,55.89
2017-11-30T11:24:28.721Z,55.35
2017-11-30T11:25:31.214Z,55.32
2017-11-30T11:26:33.697Z,55.29
2017-11-30T11:27:36.189Z,55.32
2017-11-30T11:28:38.685Z,55.30
2017-11-30T11:29:41.173Z,55.35
2017-11-30T11:30:43.644Z,55.46
2017-11-30T11:31:46.134Z,55.60
2017-11-30T11:32:48.627Z,55.79
2017-11-30T11:33:51.112Z,55.95
2017-11-30T11:34:53.588Z,56.03
2017-11-30T11:35:56.048Z,56.08
2017-11-30T11:36:58.520Z,56.16
2017-11-30T11:38:00.997Z,56.28
2017-11-30T11:39:03.471Z,56.41
2017-11-30T11:40:05.958Z,56.54
2017-11-30T11:41:08.492Z,56.68
2017-11-30T11:42:10.986Z,56.80
2017-11-30T11:43:13.470Z,56.90
2017-11-30T11:44:15.949Z,56.98
2017-11-30T11:45:18.454Z,57.05
2017-11-30T11:46:20.920Z,57.07
2017-11-30T11:47:23.388Z,57.09
2017-11-30T11:48:25.879Z,57.13
2017-11-30T11:49:28.350Z,57.12
2017-11-30T11:50:30.837Z,57.01
2017-11-30T11:51:33.312Z,56.16
2017-11-30T11:52:35.783Z,56.26
2017-11-30T11:53:38.270Z,55.49
2017-11-30T11:54:40.739Z,55.37
2017-11-30T11:55:43.216Z,55.12
2017-11-30T11:56:45.693Z,55.02
2017-11-30T11:57:48.168Z,55.00
2017-11-30T11:58:50.635Z,54.83
2017-11-30T11:59:53.104Z,54.67
2017-11-30T12:00:55.591Z,54.46
2017-11-30T12:01:58.071Z,54.38
2017-11-30T12:03:00.567Z,54.25
2017-11-30T12:04:03.043Z,54.22
2017-11-30T12:05:05.544Z,54.14
2017-11-30T12:06:08.038Z,54.15
2017-11-30T12:07:10.504Z,54.16
2017-11-30T12:08:13.007Z,54.16
2017-11-30T12:09:15.475Z,54.16
2017-11-30T12:10:17.963Z,54.22
2017-11-30T12:11:20.433Z,54.34
2017-11-30T12:12:22.914Z,54.55
2017-11-30T12:13:25.384Z,54.67
2017-11-30T12:14:27.852Z,54.88
2017-11-30T12:15:30.395Z,55.07
2017-11-30T12:16:32.871Z,55.25
2017-11-30T12:17:35.340Z,55.47
2017-11-30T12:18:37.824Z,55.58
2017-11-30T12:19:40.328Z,55.68
2017-11-30T12:20:42.820Z,55.75
2017-11-30T12:21:45.344Z,55.84
2017-11-30T12:22:47.840Z,55.78
2017-11-30T12:23:50.316Z,55.47
2017-11-30T12:24:52.808Z,55.50
2017-11-30T12:25:55.354Z,55.54
2017-11-30T12:26:57.855Z,55.46
2017-11-30T12:28:00.332Z,55.14
2017-11-30T12:29:02.818Z,54.84
2017-11-30T12:30:05.296Z,54.52
2017-11-30T12:31:07.781Z,54.34
2017-11-30T12:32:10.267Z,54.17
2017-11-30T12:33:12.757Z,54.03
2017-11-30T12:34:15.227Z,53.85
2017-11-30T12:35:17.700Z,53.66
2017-11-30T12:36:20.174Z,53.62
2017-11-30T12:37:22.656Z,53.56
2017-11-30T12:38:25.155Z,53.61
2017-11-30T12:39:27.656Z,53.59
2017-11-30T12:40:30.146Z,53.65
2017-11-30T12:41:32.631Z,53.73
2017-11-30T12:42:35.113Z,53.77
2017-11-30T12:43:37.600Z,53.99
2017-11-30T12:44:40.076Z,54.33
2017-11-30T12:45:42.610Z,54.48
2017-11-30T12:46:45.084Z,54.54
2017-11-30T12:47:47.588Z,54.64
2017-11-30T12:48:50.064Z,54.70
2017-11-30T12:49:52.556Z,54.63
2017-11-30T12:50:55.047Z,54.75
2017-11-30T12:51:57.904Z,54.90
2017-11-30T12:53:00.403Z,55.01
2017-11-30T12:54:02.892Z,55.13
2017-11-30T12:55:05.364Z,55.35
2017-11-30T12:56:07.842Z,55.62
2017-11-30T12:57:10.547Z,55.83
2017-11-30T12:58:13.620Z,55.81
2017-11-30T12:59:16.671Z,55.69
2017-11-30T13:00:19.307Z,55.72
2017-11-30T13:01:21.825Z,55.69
2017-11-30T13:02:24.319Z,55.65
2017-11-30T13:03:26.797Z,55.69
2017-11-30T13:04:29.309Z,55.74
2017-11-30T13:05:31.795Z,55.70
2017-11-30T13:06:34.274Z,55.75
2017-11-30T13:07:36.742Z,55.79
2017-11-30T13:08:39.233Z,55.87
2017-11-30T13:09:41.714Z,55.85
2017-11-30T13:10:44.185Z,55.95
2017-11-30T13:11:46.642Z,56.02
2017-11-30T13:12:49.147Z,56.11
2017-11-30T13:13:51.625Z,56.36
2017-11-30T13:14:54.083Z,56.46
2017-11-30T13:15:56.538Z,56.46
2017-11-30T13:16:58.995Z,56.39
2017-11-30T13:18:01.501Z,56.44
2017-11-30T13:19:03.958Z,56.50
2017-11-30T13:20:06.437Z,56.57
2017-11-30T13:21:08.898Z,56.65
2017-11-30T13:22:11.369Z,56.68
2017-11-30T13:23:13.852Z,56.74
2017-11-30T13:24:16.328Z,56.85
2017-11-30T13:25:18.803Z,56.92